createdAt,value
2022-09-07T00:00:52.138Z,99963.81
2022-09-07T00:03:20.139Z,99965.81
2022-09-07T00:05:50.319Z,99967.47
2022-09-07T00:08:20.442Z,99975.22
2022-09-07T00:11:03.945Z,99968.50
2022-09-07T00:13:36.220Z,99967.88
2022-09-07T00:16:10.528Z,99956.59
2022-09-07T00:18:40.280Z,99957.66
2022-09-07T00:21:11.281Z,99960.16
2022-09-07T00:23:40.002Z,99958.22
2022-09-07T00:26:17.217Z,99952.53
2022-09-07T00:28:45.014Z,99955.25
2022-09-07T00:31:21.629Z,99946.66
2022-09-07T00:33:50.266Z,99946.84
2022-09-07T00:36:19.211Z,99945.59
2022-09-07T00:38:46.717Z,99939.72
2022-09-07T00:41:15.187Z,99945.16
2022-09-07T00:43:52.712Z,99946.75
2022-09-07T00:46:34.416Z,99928.03
2022-09-07T00:49:10.236Z,99927.63
2022-09-07T00:51:47.478Z,99926.81
2022-09-07T00:54:27.612Z,99930.25
2022-09-07T00:56:55.747Z,99936.34
2022-09-07T00:59:37.643Z,99940.72
2022-09-07T01:02:05.995Z,99945.75
2022-09-07T01:04:33.559Z,99949.78
2022-09-07T01:07:01.775Z,99963.72
2022-09-07T01:09:31.000Z,99967.13
2022-09-07T01:12:00.031Z,99980.53
2022-09-07T01:14:39.951Z,99987.53
2022-09-07T01:17:38.023Z,100017.19
2022-09-07T01:20:50.758Z,100023.03
2022-09-07T01:23:42.132Z,100006.16
2022-09-07T01:26:57.191Z,100018.38
2022-09-07T01:30:08.567Z,100008.47
2022-09-07T01:32:47.335Z,100010.53
2022-09-07T01:35:42.610Z,100012.91
2022-09-07T01:38:23.763Z,100016.28
2022-09-07T01:41:33.551Z,100023.78
2022-09-07T01:44:12.430Z,100022.06
2022-09-07T01:47:05.395Z,100023.66
2022-09-07T01:49:43.705Z,100008.56
2022-09-07T01:52:22.187Z,99998.16
2022-09-07T01:54:59.580Z,100011.63
2022-09-07T01:57:34.634Z,100019.56
2022-09-07T02:00:15.492Z,100008.34
2022-09-07T02:03:03.492Z,100011.41
2022-09-07T02:06:20.195Z,99998.34
2022-09-07T02:09:03.361Z,99999.66
2022-09-07T02:11:38.899Z,100004.88
2022-09-07T02:14:25.573Z,100000.69
2022-09-07T02:17:12.328Z,100000.91
2022-09-07T02:19:59.994Z,100012.84
2022-09-07T02:22:32.203Z,100017.56
2022-09-07T02:25:03.955Z,100027.41
2022-09-07T02:27:46.710Z,100029.06
2022-09-07T02:30:14.615Z,100039.22
2022-09-07T02:32:42.051Z,100033.53
2022-09-07T02:35:09.724Z,100020.91
2022-09-07T02:37:38.543Z,100035.53
2022-09-07T02:40:06.869Z,100033.88
2022-09-07T02:42:35.564Z,100033.13
2022-09-07T02:45:06.460Z,100030.91
2022-09-07T02:48:12.018Z,100026.72
2022-09-07T02:50:58.750Z,100029.69
2022-09-07T02:53:37.630Z,100030.13
2022-09-07T02:57:05.191Z,100036.53
2022-09-07T03:00:12.289Z,100026.38
2022-09-07T03:03:06.881Z,100023.22
2022-09-07T03:05:59.254Z,100035.78
2022-09-07T03:08:44.320Z,100027.72
2022-09-07T03:11:13.422Z,100037.47
2022-09-07T03:13:40.455Z,100033.34
2022-09-07T03:16:12.795Z,100042.88
2022-09-07T03:18:40.222Z,100039.03
2022-09-07T03:21:07.176Z,100035.03
2022-09-07T03:23:34.187Z,100038.50
2022-09-07T03:26:01.105Z,100028.56
2022-09-07T03:28:28.055Z,100029.59
2022-09-07T03:30:54.995Z,100033.81
2022-09-07T03:33:22.151Z,100025.97
2022-09-07T03:36:02.418Z,100022.06
2022-09-07T03:38:30.856Z,100017.72
2022-09-07T03:41:03.690Z,100021.78
2022-09-07T03:43:31.367Z,100022.78
2022-09-07T03:46:04.879Z,100027.13
2022-09-07T03:48:36.710Z,100030.59
2022-09-07T03:51:09.910Z,100024.69
2022-09-07T03:53:43.897Z,100024.16
2022-09-07T03:56:21.719Z,100019.97
2022-09-07T03:58:50.375Z,100022.03
2022-09-07T04:01:21.547Z,100035.06
2022-09-07T04:03:49.460Z,100027.38
2022-09-07T04:06:17.847Z,100035.88
2022-09-07T04:08:45.084Z,100025.56
2022-09-07T04:11:18.656Z,100024.66
2022-09-07T04:13:46.535Z,100032.41
2022-09-07T04:16:17.019Z,100030.75
2022-09-07T04:18:44.588Z,100040.69
2022-09-07T04:21:12.255Z,100035.03
2022-09-07T04:23:42.147Z,100042.16
2022-09-07T04:26:30.490Z,100044.03
2022-09-07T04:28:58.482Z,100040.75
2022-09-07T04:31:26.068Z,100043.81
2022-09-07T04:33:54.285Z,100046.41
2022-09-07T04:36:22.126Z,100042.34
2022-09-07T04:38:59.718Z,100036.47
2022-09-07T04:41:28.992Z,100042.38
2022-09-07T04:44:01.670Z,100042.19
2022-09-07T04:46:33.851Z,100046.44
2022-09-07T04:49:04.457Z,100045.81
2022-09-07T04:51:32.904Z,100039.94
2022-09-07T04:54:02.816Z,100044.00
2022-09-07T04:56:31.284Z,100044.44
2022-09-07T04:59:00.790Z,100045.63
2022-09-07T05:01:28.250Z,100048.09
2022-09-07T05:03:55.795Z,100053.34
2022-09-07T05:06:23.395Z,100041.19
2022-09-07T05:08:53.661Z,100041.19
2022-09-07T05:11:28.459Z,100047.66
2022-09-07T05:14:01.583Z,100057.00
2022-09-07T05:16:29.779Z,100054.19
2022-09-07T05:19:02.208Z,100052.53
2022-09-07T05:21:34.544Z,100063.28
2022-09-07T05:24:02.866Z,100066.31
2022-09-07T05:26:33.075Z,100057.13
2022-09-07T05:31:52.638Z,100062.22
2022-09-07T05:34:35.242Z,100059.41
2022-09-07T05:37:02.348Z,100063.06
2022-09-07T05:39:29.874Z,100061.44
2022-09-07T05:41:57.077Z,100060.41
2022-09-07T05:47:11.660Z,100060.56
2022-09-07T05:49:38.722Z,100060.19
2022-09-07T05:52:05.802Z,100072.78
2022-09-07T05:54:32.859Z,100055.03
2022-09-07T05:56:59.781Z,100057.72
2022-09-07T05:59:26.706Z,100064.41
2022-09-07T06:01:54.137Z,100066.78
2022-09-07T06:04:21.252Z,100071.03
2022-09-07T06:07:11.041Z,100072.97
2022-09-07T06:09:35.516Z,100066.97
2022-09-07T06:12:05.396Z,100071.13
2022-09-07T06:14:35.771Z,100073.69
2022-09-07T06:17:02.808Z,100073.56
2022-09-07T06:19:29.769Z,100081.78
2022-09-07T06:21:56.935Z,100083.78
2022-09-07T06:24:23.913Z,100084.88
2022-09-07T06:26:50.958Z,100099.03
2022-09-07T06:29:18.022Z,100098.50
2022-09-07T06:34:31.969Z,100098.47
2022-09-07T06:36:59.018Z,100100.63
2022-09-07T06:39:26.002Z,100102.88
2022-09-07T06:44:22.987Z,100097.38
2022-09-07T06:47:05.245Z,100101.53
2022-09-07T06:49:32.381Z,100101.19
2022-09-07T06:51:59.604Z,100108.56
2022-09-07T06:57:13.630Z,100094.41
2022-09-07T06:59:40.628Z,100102.03
2022-09-07T07:02:09.514Z,100110.03
2022-09-07T07:04:40.555Z,100105.19
2022-09-07T07:07:12.939Z,100102.13
2022-09-07T07:09:41.559Z,100102.19
2022-09-07T07:12:09.685Z,100103.22
2022-09-07T07:14:39.609Z,100100.00
2022-09-07T07:17:08.358Z,100103.97
2022-09-07T07:19:35.332Z,100097.66
2022-09-07T07:22:14.505Z,100094.56
2022-09-07T07:24:49.350Z,100099.47
2022-09-07T07:27:17.231Z,100100.13
2022-09-07T07:29:44.426Z,100105.34
2022-09-07T07:32:11.470Z,100092.81
2022-09-07T07:34:38.538Z,100105.34
2022-09-07T07:37:05.551Z,100106.59
2022-09-07T07:42:21.295Z,100100.28
2022-09-07T07:44:48.680Z,100107.31
2022-09-07T07:47:15.994Z,100111.69
2022-09-07T07:49:43.027Z,100123.22
2022-09-07T07:54:57.117Z,100119.53
2022-09-07T07:57:24.203Z,100119.22
2022-09-07T07:59:51.103Z,100131.69
2022-09-07T08:02:18.140Z,100130.06
2022-09-07T08:04:45.080Z,100131.34
2022-09-07T08:07:13.224Z,100123.72
2022-09-07T08:09:42.072Z,100129.06
2022-09-07T08:12:12.166Z,100124.88
2022-09-07T08:14:43.217Z,100129.94
2022-09-07T08:17:13.046Z,100118.28
2022-09-07T08:19:40.766Z,100128.34
2022-09-07T08:22:10.042Z,100122.88
2022-09-07T08:24:37.143Z,100125.16
2022-09-07T08:27:04.566Z,100122.13
2022-09-07T08:29:34.617Z,100124.84
2022-09-07T08:32:05.034Z,100130.78
2022-09-07T08:34:32.323Z,100136.19
2022-09-07T08:36:59.248Z,100144.38
2022-09-07T08:39:26.353Z,100142.47
2022-09-07T08:41:59.621Z,100137.72
2022-09-07T08:44:34.228Z,100145.94
2022-09-07T08:47:43.888Z,100131.34
2022-09-07T08:50:48.971Z,100138.63
2022-09-07T08:53:19.531Z,100131.25
2022-09-07T08:56:01.839Z,100132.81
2022-09-07T08:58:50.433Z,100130.00
2022-09-07T09:01:41.232Z,100131.69
2022-09-07T09:04:29.588Z,100145.47
2022-09-07T09:07:05.937Z,100136.25
2022-09-07T09:10:22.244Z,100143.06
2022-09-07T09:13:06.678Z,100140.50
2022-09-07T09:16:18.529Z,100146.28
2022-09-07T09:19:16.110Z,100141.19
2022-09-07T09:21:43.710Z,100137.38
2022-09-07T09:24:19.246Z,100132.09
2022-09-07T09:29:24.033Z,100127.09
2022-09-07T09:31:50.935Z,100123.31
2022-09-07T09:34:23.935Z,100112.41
2022-09-07T09:36:56.220Z,100115.50
2022-09-07T09:39:37.607Z,100106.78
2022-09-07T09:42:07.662Z,100110.13
2022-09-07T09:44:38.206Z,100115.13
2022-09-07T09:49:54.225Z,100102.50
2022-09-07T09:52:32.824Z,100099.59
2022-09-07T10:04:01.194Z,100089.72
2022-09-07T10:06:29.796Z,100078.03
2022-09-07T10:09:00.289Z,100069.44
2022-09-07T10:12:07.103Z,100070.56
2022-09-07T10:14:43.523Z,100079.38
2022-09-07T10:17:19.779Z,100074.78
2022-09-07T10:19:46.704Z,100070.25
2022-09-07T10:22:20.967Z,100060.38
2022-09-07T10:24:47.918Z,100063.59
2022-09-07T10:27:38.557Z,100065.94
2022-09-07T10:30:15.220Z,100066.38
2022-09-07T10:33:06.497Z,100062.75
2022-09-07T10:35:59.019Z,100058.56
2022-09-07T10:38:31.372Z,100054.81
2022-09-07T10:41:09.919Z,100044.31
2022-09-07T10:43:48.424Z,100055.69
2022-09-07T10:52:52.249Z,100043.56
2022-09-07T10:55:47.459Z,100039.75
2022-09-07T11:01:35.663Z,100035.28
2022-09-07T11:04:49.233Z,100032.31
2022-09-07T11:07:53.593Z,100021.06
2022-09-07T11:10:48.604Z,100010.91
2022-09-07T11:13:22.642Z,100005.50
2022-09-07T11:16:01.283Z,100000.75
2022-09-07T11:18:33.899Z,99992.72
2022-09-07T11:21:03.655Z,99990.84
2022-09-07T11:23:45.235Z,99996.44
2022-09-07T11:26:28.718Z,99997.00
2022-09-07T11:29:32.642Z,100003.41
2022-09-07T11:32:23.918Z,99988.97
2022-09-07T11:34:57.612Z,99979.31
2022-09-07T11:37:59.593Z,99976.00
2022-09-07T11:40:35.607Z,99970.19
2022-09-07T11:43:46.485Z,99970.50
2022-09-07T11:46:32.548Z,99976.81
2022-09-07T11:48:59.973Z,99974.25
2022-09-07T11:51:53.606Z,99972.63
2022-09-07T11:54:53.936Z,99966.63
2022-09-07T11:57:42.478Z,99968.19
2022-09-07T12:00:21.637Z,99949.34
2022-09-07T12:03:38.240Z,99965.16
2022-09-07T12:06:24.738Z,99955.00
2022-09-07T12:09:10.103Z,99949.84
2022-09-07T12:12:08.129Z,99953.59
2022-09-07T12:15:35.840Z,99951.44
2022-09-07T12:18:34.540Z,99948.22
2022-09-07T12:21:01.533Z,99944.00
2022-09-07T12:23:31.487Z,99953.91
2022-09-07T12:26:42.402Z,99948.81
2022-09-07T12:29:23.307Z,99942.69
2022-09-07T12:32:00.673Z,99947.75
2022-09-07T12:34:34.358Z,99937.56
2022-09-07T12:37:22.726Z,99927.97
2022-09-07T12:39:50.159Z,99936.97
2022-09-07T12:42:36.758Z,99917.47
2022-09-07T12:45:38.893Z,99909.72
2022-09-07T12:48:44.982Z,99904.50
2022-09-07T12:54:38.041Z,99883.53
2022-09-07T12:57:29.265Z,99892.00
2022-09-07T13:00:19.163Z,99891.88
2022-09-07T13:07:03.337Z,99893.28
2022-09-07T13:09:35.429Z,99890.50
2022-09-07T13:15:46.499Z,99889.16
2022-09-07T13:18:36.576Z,99890.56
2022-09-07T13:21:07.917Z,99890.16
2022-09-07T13:23:35.891Z,99894.88
2022-09-07T13:26:06.888Z,99892.56
2022-09-07T13:28:40.319Z,99889.88
2022-09-07T13:31:37.113Z,99878.59
2022-09-07T13:34:30.093Z,99876.88
2022-09-07T13:36:59.130Z,99869.94
2022-09-07T13:39:26.986Z,99867.34
2022-09-07T13:41:58.544Z,99867.34
2022-09-07T13:44:31.433Z,99871.56
2022-09-07T13:47:07.220Z,99877.66
2022-09-07T13:50:18.408Z,99865.03
2022-09-07T13:53:27.589Z,99868.47
2022-09-07T13:56:23.737Z,99870.53
2022-09-07T13:58:53.743Z,99860.84
2022-09-07T14:01:28.104Z,99864.41
2022-09-07T14:04:07.474Z,99863.84
2022-09-07T14:06:36.842Z,99874.59
2022-09-07T14:09:16.502Z,99859.75
2022-09-07T14:11:54.052Z,99859.22
2022-09-07T14:14:30.102Z,99858.06
2022-09-07T14:17:02.355Z,99855.41
2022-09-07T14:19:45.474Z,99844.97
2022-09-07T14:22:22.431Z,99838.59
2022-09-07T14:25:03.059Z,99820.34
2022-09-07T14:27:37.525Z,99818.16
2022-09-07T14:30:20.195Z,99828.81
2022-09-07T14:33:00.668Z,99829.66
2022-09-07T14:35:33.903Z,99830.72
2022-09-07T14:41:17.540Z,99821.84
2022-09-07T14:43:53.647Z,99825.69
2022-09-07T14:46:22.549Z,99826.09
2022-09-07T14:48:56.494Z,99818.34
2022-09-07T14:51:36.109Z,99814.88
2022-09-07T14:54:08.862Z,99814.47
2022-09-07T14:56:41.678Z,99806.72
2022-09-07T14:59:32.978Z,99812.94
2022-09-07T15:02:17.839Z,99802.78
2022-09-07T15:05:10.695Z,99805.47
2022-09-07T15:07:59.761Z,99795.84
2022-09-07T15:10:30.468Z,99780.31
2022-09-07T15:13:00.094Z,99776.03
2022-09-07T15:15:34.892Z,99778.66
2022-09-07T15:18:08.719Z,99786.16
2022-09-07T15:20:45.569Z,99788.31
2022-09-07T15:23:18.100Z,99796.94
2022-09-07T15:25:51.863Z,99801.47
2022-09-07T15:34:20.496Z,99802.84
2022-09-07T15:36:51.162Z,99809.22
2022-09-07T15:39:25.612Z,99814.56
2022-09-07T15:41:52.967Z,99812.41
2022-09-07T15:44:24.913Z,99824.13
2022-09-07T15:49:47.481Z,99838.38
2022-09-07T15:52:16.747Z,99854.38
2022-09-07T15:54:43.778Z,99840.00
2022-09-07T15:59:58.471Z,99855.63
2022-09-07T16:05:12.699Z,99855.25
2022-09-07T16:10:31.064Z,99876.84
2022-09-07T16:13:02.810Z,99896.25
2022-09-07T16:15:45.532Z,99920.63
2022-09-07T16:18:16.785Z,99920.97
2022-09-07T16:20:45.302Z,99927.03
2022-09-07T16:23:15.587Z,99933.50
2022-09-07T16:25:57.413Z,99924.94
2022-09-07T16:28:25.189Z,99923.81
2022-09-07T16:30:52.567Z,99922.81
2022-09-07T16:33:19.969Z,99923.19
2022-09-07T16:36:01.145Z,99904.09
2022-09-07T16:38:45.455Z,99880.41
2022-09-07T16:41:22.918Z,99877.19
2022-09-07T16:43:50.232Z,99889.50
2022-09-07T16:46:20.291Z,99897.63
2022-09-07T16:48:47.771Z,99896.59
2022-09-07T16:51:18.680Z,99892.41
2022-09-07T16:53:45.793Z,99892.88
2022-09-07T16:56:17.347Z,99893.53
2022-09-07T16:58:51.376Z,99891.28
2022-09-07T17:01:22.103Z,99871.69
2022-09-07T17:03:50.218Z,99874.19
2022-09-07T17:06:20.478Z,99870.88
2022-09-07T17:08:47.874Z,99875.59
2022-09-07T17:11:19.631Z,99870.47
2022-09-07T17:13:48.204Z,99860.75
2022-09-07T17:16:19.950Z,99867.69
2022-09-07T17:21:38.549Z,99857.25
2022-09-07T17:24:08.139Z,99853.81
2022-09-07T17:26:35.752Z,99863.78
2022-09-07T17:29:02.807Z,99852.22
2022-09-07T17:34:23.427Z,99861.38
2022-09-07T17:36:51.291Z,99876.34
2022-09-07T17:39:19.534Z,99871.75
2022-09-07T17:41:48.523Z,99856.53
2022-09-07T17:44:16.331Z,99867.28
2022-09-07T17:46:43.728Z,99873.88
2022-09-07T17:49:14.022Z,99894.84
2022-09-07T17:51:41.488Z,99903.41
2022-09-07T17:54:14.737Z,99900.63
2022-09-07T17:56:42.806Z,99915.72
2022-09-07T18:01:58.584Z,99928.50
2022-09-07T18:04:25.573Z,99923.44
2022-09-07T18:06:54.485Z,99907.22
2022-09-07T18:09:21.966Z,99910.66
2022-09-07T18:11:50.136Z,99914.81
2022-09-07T18:14:18.949Z,99909.75
2022-09-07T18:16:49.205Z,99912.75
2022-09-07T18:19:18.183Z,99906.91
2022-09-07T18:21:47.774Z,99906.78
2022-09-07T18:24:24.942Z,99915.56
2022-09-07T18:26:53.903Z,99902.13
2022-09-07T18:29:34.086Z,99894.03
2022-09-07T18:32:08.276Z,99878.75
2022-09-07T18:34:38.215Z,99869.41
2022-09-07T18:37:06.049Z,99873.00
2022-09-07T18:39:35.242Z,99888.09
2022-09-07T18:42:02.263Z,99909.91
2022-09-07T18:47:27.684Z,99905.13
2022-09-07T18:49:56.145Z,99905.91
2022-09-07T18:55:10.525Z,99891.44
2022-09-07T18:57:39.596Z,99882.41
2022-09-07T19:00:10.716Z,99878.59
2022-09-07T19:02:38.096Z,99878.00
2022-09-07T19:07:52.998Z,99875.28
2022-09-07T19:10:23.170Z,99872.66
2022-09-07T19:12:50.143Z,99876.53
2022-09-07T19:15:17.478Z,99876.31
2022-09-07T19:17:44.398Z,99868.13
2022-09-07T19:20:11.425Z,99865.66
2022-09-07T19:22:39.021Z,99850.88
2022-09-07T19:25:06.508Z,99844.38
2022-09-07T19:27:33.576Z,99848.28
2022-09-07T19:30:01.035Z,99839.56
2022-09-07T19:32:28.862Z,99845.03
2022-09-07T19:34:59.139Z,99847.47
2022-09-07T19:37:27.589Z,99832.78
2022-09-07T19:39:59.012Z,99810.13
2022-09-07T19:42:26.600Z,99801.09
2022-09-07T19:44:54.693Z,99803.97
2022-09-07T19:47:22.225Z,99801.06
2022-09-07T19:49:49.714Z,99795.00
2022-09-07T19:52:19.196Z,99777.69
2022-09-07T19:54:46.282Z,99773.88
2022-09-07T19:57:13.959Z,99774.00
2022-09-07T19:59:41.421Z,99768.94
2022-09-07T20:02:10.158Z,99773.16
2022-09-07T20:04:37.615Z,99768.84
2022-09-07T20:07:05.388Z,99772.34
2022-09-07T20:09:32.498Z,99762.97
2022-09-07T20:12:01.827Z,99757.69
2022-09-07T20:14:30.005Z,99760.28
2022-09-07T20:16:57.589Z,99749.81
2022-09-07T20:19:25.255Z,99747.84
2022-09-07T20:21:55.728Z,99745.88
2022-09-07T20:24:23.821Z,99746.16
2022-09-07T20:26:50.862Z,99747.19
2022-09-07T20:29:33.539Z,99744.56
2022-09-07T20:32:01.387Z,99741.56
2022-09-07T20:34:28.959Z,99732.81
2022-09-07T20:36:56.822Z,99724.44
2022-09-07T20:39:24.778Z,99725.88
2022-09-07T20:41:51.969Z,99734.78
2022-09-07T20:44:19.228Z,99736.03
2022-09-07T20:46:46.326Z,99722.97
2022-09-07T20:49:13.294Z,99724.31
2022-09-07T20:51:40.238Z,99729.72
2022-09-07T20:54:07.244Z,99737.25
2022-09-07T20:56:34.400Z,99745.47
2022-09-07T20:59:02.676Z,99750.53
2022-09-07T21:01:31.953Z,99759.28
2022-09-07T21:04:00.626Z,99756.75
2022-09-07T21:06:29.792Z,99757.03
2022-09-07T21:08:58.199Z,99764.09
2022-09-07T21:11:32.291Z,99768.34
2022-09-07T21:14:06.159Z,99766.59
2022-09-07T21:16:34.626Z,99770.25
2022-09-07T21:19:03.936Z,99757.78
2022-09-07T21:21:39.290Z,99768.16
2022-09-07T21:24:15.461Z,99759.00
2022-09-07T21:26:42.864Z,99761.44
2022-09-07T21:29:22.278Z,99766.25
2022-09-07T21:31:50.120Z,99773.00
2022-09-07T21:34:17.369Z,99764.56
2022-09-07T21:36:44.696Z,99771.78
2022-09-07T21:39:14.472Z,99774.56
2022-09-07T21:41:43.316Z,99770.56
2022-09-07T21:44:16.026Z,99772.78
2022-09-07T21:46:43.982Z,99763.41
2022-09-07T21:49:11.423Z,99755.50
2022-09-07T21:51:38.651Z,99758.72
2022-09-07T21:54:06.006Z,99755.50
2022-09-07T21:56:33.127Z,99753.91
2022-09-07T21:59:02.511Z,99758.84
2022-09-07T22:01:31.350Z,99757.75
2022-09-07T22:04:07.478Z,99755.06
2022-09-07T22:06:35.483Z,99752.84
2022-09-07T22:09:04.922Z,99746.78
2022-09-07T22:11:32.304Z,99754.00
2022-09-07T22:14:02.774Z,99754.59
2022-09-07T22:16:31.727Z,99753.03
2022-09-07T22:18:58.744Z,99753.19
2022-09-07T22:21:30.288Z,99753.31
2022-09-07T22:24:03.426Z,99745.88
2022-09-07T22:26:36.263Z,99747.53
2022-09-07T22:29:04.838Z,99746.56
2022-09-07T22:31:35.048Z,99745.06
2022-09-07T22:34:04.679Z,99735.00
2022-09-07T22:36:35.263Z,99736.16
2022-09-07T22:39:09.016Z,99739.91
2022-09-07T22:41:38.311Z,99750.91
2022-09-07T22:44:08.225Z,99777.47
2022-09-07T22:46:37.253Z,99790.88
2022-09-07T22:49:05.806Z,99792.00
2022-09-07T22:51:33.229Z,99795.31
2022-09-07T22:54:00.625Z,99797.03
2022-09-07T22:56:31.815Z,99796.84
2022-09-07T22:59:07.468Z,99798.56
2022-09-07T23:01:35.963Z,99798.81
2022-09-07T23:04:03.645Z,99783.78
2022-09-07T23:06:35.546Z,99801.66
2022-09-07T23:09:10.730Z,99814.69
2022-09-07T23:11:38.470Z,99828.31
2022-09-07T23:14:10.980Z,99823.19
2022-09-07T23:16:37.987Z,99820.44
2022-09-07T23:19:05.093Z,99808.91
2022-09-07T23:21:32.007Z,99801.66
2022-09-07T23:24:00.325Z,99799.53
2022-09-07T23:26:30.180Z,99788.53
2022-09-07T23:29:00.730Z,99779.69
2022-09-07T23:31:29.880Z,99786.34
2022-09-07T23:33:57.656Z,99777.59
2022-09-07T23:36:25.490Z,99770.50
2022-09-07T23:38:56.205Z,99752.50
2022-09-07T23:41:24.945Z,99742.72
2022-09-07T23:43:53.492Z,99736.25
2022-09-07T23:46:21.130Z,99737.50
2022-09-07T23:48:48.990Z,99727.38
2022-09-07T23:51:21.222Z,99724.53
2022-09-07T23:53:50.927Z,99711.28
2022-09-07T23:56:17.818Z,99713.25
2022-09-07T23:58:44.997Z,99702.88
